Time;durP1;ratioP1;P1;durP2;ratioP2;P2;SDS_P1;SDS_P2;PMS_P1;PMS_P2;Temp;Humidity;BMP_temperature;BMP_pressure;BME280_temperature;BME280_humidity;BME280_pressure;Samples;Min_cycle;Max_cycle;Signal;HPM_P1;HPM_P2
2021/07/22 00:02:08;;;;;;;11.50;7.55;;;537.60;2406.40;;;;;;4843000;29;20034;-73
2021/07/22 00:04:33;;;;;;;10.32;6.97;;;512.90;2380.80;;;;;;4841734;29;20112;-73
2021/07/22 00:06:59;;;;;;;9.70;6.38;;;512.90;2380.80;;;;;;4842927;29;20041;-74
2021/07/22 00:09:25;;;;;;;9.10;6.93;;;512.90;2380.80;;;;;;4842935;29;20062;-73
2021/07/22 00:11:51;;;;;;;9.57;6.65;;;512.90;2380.80;;;;;;4841924;29;20476;-73
2021/07/22 00:14:16;;;;;;;10.73;7.45;;;537.80;2406.40;;;;;;4841321;29;20046;-73
2021/07/22 00:16:42;;;;;;;9.52;6.03;;;512.90;2380.80;;;;;;4841598;29;20399;-72
2021/07/22 00:19:08;;;;;;;8.15;6.80;;;512.90;2380.80;;;;;;4830295;29;20122;-73
2021/07/22 00:21:33;;;;;;;9.18;6.30;;;512.80;2380.80;;;;;;4842490;29;20038;-73
2021/07/22 00:23:59;;;;;;;13.13;7.07;;;512.80;2380.80;;;;;;4830511;29;20030;-73
2021/07/22 00:26:25;;;;;;;11.45;6.07;;;512.80;2380.80;;;;;;4842508;29;20026;-74
2021/07/22 00:28:51;;;;;;;9.75;6.45;;;512.80;2380.80;;;;;;4842497;29;20097;-73
2021/07/22 00:31:17;;;;;;;8.75;6.22;;;512.60;2380.80;;;;;;4842527;29;20503;-74
2021/07/22 00:33:42;;;;;;;10.20;7.18;;;512.60;2380.80;;;;;;4842600;29;20037;-73
2021/07/22 00:36:09;;;;;;;8.55;5.07;;;512.60;2380.80;;;;;;4842399;29;20507;-74
2021/07/22 00:38:35;;;;;;;9.60;6.45;;;512.60;2380.80;;;;;;4842422;29;20026;-74
2021/07/22 00:41:01;;;;;;;20.48;6.90;;;512.60;2380.80;;;;;;4842310;29;20481;-73
2021/07/22 00:43:27;;;;;;;9.63;5.72;;;512.70;2380.80;;;;;;4841046;29;20026;-74
2021/07/22 00:45:53;;;;;;;12.45;6.45;;;512.70;2380.80;;;;;;4842511;29;20029;-74
2021/07/22 00:48:18;;;;;;;10.73;6.65;;;512.70;2380.80;;;;;;4841740;29;20494;-74
2021/07/22 00:50:44;;;;;;;8.80;7.13;;;512.70;2380.80;;;;;;4842240;29;20034;-74
2021/07/22 00:53:10;;;;;;;8.20;6.68;;;512.70;2380.80;;;;;;4842021;29;20063;-74
2021/07/22 00:55:35;;;;;;;11.63;7.13;;;512.60;2380.80;;;;;;4842141;29;20030;-74
2021/07/22 00:58:01;;;;;;;9.10;5.93;;;512.50;2380.80;;;;;;4841067;29;20125;-73
2021/07/22 01:00:27;;;;;;;9.07;6.22;;;512.50;2380.80;;;;;;4842016;29;20038;-73
2021/07/22 01:02:52;;;;;;;11.85;5.90;;;512.60;2380.80;;;;;;4841612;29;20377;-73
2021/07/22 01:05:18;;;;;;;9.52;5.63;;;512.60;2380.80;;;;;;4841949;29;20036;-73
2021/07/22 01:07:44;;;;;;;9.13;5.53;;;512.60;2380.80;;;;;;4841418;29;20732;-73
2021/07/22 01:10:10;;;;;;;7.72;5.50;;;512.60;2380.80;;;;;;4841485;29;20491;-73
2021/07/22 01:12:36;;;;;;;6.88;5.53;;;512.60;2380.80;;;;;;4841679;29;20037;-74
2021/07/22 01:15:02;;;;;;;9.13;6.32;;;512.50;2380.80;;;;;;4839525;29;20058;-73
2021/07/22 01:17:28;;;;;;;8.27;6.65;;;512.50;2380.80;;;;;;4841461;29;20113;-74
2021/07/22 01:19:53;;;;;;;9.48;5.07;;;512.60;2380.80;;;;;;4839405;29;20057;-74
2021/07/22 01:22:19;;;;;;;8.43;6.20;;;512.70;2380.80;;;;;;4841439;29;20041;-74
2021/07/22 01:24:45;;;;;;;8.85;5.95;;;512.60;2380.80;;;;;;4841362;29;20037;-74
2021/07/22 01:27:11;;;;;;;8.75;5.75;;;512.60;2380.80;;;;;;4840515;29;20066;-74
2021/07/22 01:29:37;;;;;;;9.07;5.97;;;512.60;2380.80;;;;;;4841594;29;20026;-73
2021/07/22 01:32:05;;;;;;;9.82;6.55;;;512.40;2380.80;;;;;;4841763;29;20052;-74
2021/07/22 01:34:30;;;;;;;7.68;6.32;;;512.30;2380.80;;;;;;4841569;29;20030;-74
2021/07/22 01:36:56;;;;;;;11.30;6.40;;;512.30;2380.80;;;;;;4840328;29;20034;-74
2021/07/22 01:39:22;;;;;;;12.85;6.90;;;512.30;2380.80;;;;;;4840581;29;20049;-74
2021/07/22 01:41:47;;;;;;;8.70;6.20;;;512.30;2380.80;;;;;;4841462;29;20114;-74
2021/07/22 01:44:15;;;;;;;10.65;6.63;;;512.30;2380.80;;;;;;4841562;29;20105;-73
2021/07/22 01:46:41;;;;;;;12.18;6.70;;;512.30;2380.80;;;;;;4841562;29;20825;-73
2021/07/22 01:49:07;;;;;;;8.10;6.32;;;512.30;2380.80;;;;;;4855538;29;20117;-73
2021/07/22 01:51:33;;;;;;;9.13;6.60;;;512.30;2380.80;;;;;;4841479;29;20042;-74
2021/07/22 01:53:59;;;;;;;7.05;5.63;;;512.30;2380.80;;;;;;4840368;29;20121;-74
2021/07/22 01:56:25;;;;;;;6.68;5.93;;;512.20;2380.80;;;;;;4840108;29;20058;-73
2021/07/22 01:58:50;;;;;;;9.10;6.50;;;512.10;2380.80;;;;;;4840682;29;20461;-74
2021/07/22 02:01:16;;;;;;;7.88;6.40;;;487.30;2380.80;;;;;;4845011;29;20600;-73
2021/07/22 02:03:42;;;;;;;11.38;7.47;;;487.30;2380.80;;;;;;4843909;29;20038;-73
2021/07/22 02:06:08;;;;;;;14.45;7.05;;;487.20;2380.80;;;;;;4845041;29;20492;-73
2021/07/22 02:08:35;;;;;;;12.20;7.10;;;487.30;2380.80;;;;;;4843451;29;20190;-73
2021/07/22 02:11:05;;;;;;;10.57;7.28;;;487.30;2380.80;;;;;;4845076;29;20482;-73
2021/07/22 02:13:31;;;;;;;12.15;7.20;;;487.30;2380.80;;;;;;4844993;29;20050;-74
2021/07/22 02:15:57;;;;;;;9.60;7.60;;;487.30;2380.80;;;;;;4843619;29;20049;-73
2021/07/22 02:18:23;;;;;;;9.68;7.35;;;487.30;2380.80;;;;;;4843602;29;20032;-74
2021/07/22 02:20:49;;;;;;;14.88;7.97;;;487.30;2380.80;;;;;;4844924;29;20034;-73
2021/07/22 02:23:15;;;;;;;14.43;8.27;;;512.00;2380.80;;;;;;4844600;29;20036;-73
2021/07/22 02:25:41;;;;;;;10.38;8.25;;;512.00;2380.80;;;;;;4844868;29;20038;-73
2021/07/22 02:28:07;;;;;;;16.02;7.88;;;512.00;2380.80;;;;;;4844646;29;20030;-73
2021/07/22 02:30:33;;;;;;;11.15;8.93;;;487.30;2380.80;;;;;;4844416;29;20038;-74
2021/07/22 02:32:59;;;;;;;10.95;8.02;;;487.30;2380.80;;;;;;4843554;29;20038;-74
2021/07/22 02:35:25;;;;;;;10.32;8.18;;;487.30;2380.80;;;;;;4844526;29;20030;-74
2021/07/22 02:37:51;;;;;;;11.75;8.23;;;487.30;2380.80;;;;;;4843613;29;20409;-74
2021/07/22 02:40:17;;;;;;;10.63;7.60;;;487.30;2380.80;;;;;;4843164;29;20038;-74
2021/07/22 02:42:42;;;;;;;15.00;9.05;;;487.10;2380.80;;;;;;4843302;29;20056;-74
2021/07/22 02:45:09;;;;;;;11.45;8.30;;;487.10;2380.80;;;;;;4844373;29;20782;-74
2021/07/22 02:47:35;;;;;;;10.55;7.97;;;487.10;2380.80;;;;;;4844543;29;20053;-74
2021/07/22 02:50:00;;;;;;;11.77;8.23;;;487.10;2380.80;;;;;;4844156;29;20061;-74
2021/07/22 02:52:26;;;;;;;10.48;8.45;;;487.10;2380.80;;;;;;4844400;29;20471;-74
2021/07/22 02:54:52;;;;;;;16.95;8.57;;;487.00;2380.80;;;;;;4843111;29;20025;-74
2021/07/22 02:57:17;;;;;;;12.95;8.85;;;486.90;2380.80;;;;;;4844221;29;20643;-74
2021/07/22 02:59:43;;;;;;;10.27;8.38;;;486.80;2380.80;;;;;;4844338;29;20033;-74
2021/07/22 03:02:09;;;;;;;13.60;8.98;;;486.80;2380.80;;;;;;4844027;29;20520;-74
2021/07/22 03:04:34;;;;;;;10.80;7.95;;;486.90;2380.80;;;;;;4844122;29;20022;-74
2021/07/22 03:07:00;;;;;;;13.45;9.20;;;486.90;2380.80;;;;;;4844121;29;20097;-74
2021/07/22 03:09:26;;;;;;;10.38;8.52;;;487.00;2380.80;;;;;;4844125;29;20033;-74
2021/07/22 03:11:51;;;;;;;14.52;9.05;;;486.90;2380.80;;;;;;4843710;29;20026;-74
2021/07/22 03:14:17;;;;;;;14.02;10.25;;;486.90;2380.80;;;;;;4842836;29;20455;-74
2021/07/22 03:16:43;;;;;;;14.88;8.57;;;486.90;2380.80;;;;;;4843789;29;20109;-74
2021/07/22 03:19:09;;;;;;;11.27;8.60;;;486.90;2380.80;;;;;;4842586;29;20134;-74
2021/07/22 03:21:34;;;;;;;12.90;8.52;;;487.00;2380.80;;;;;;4842973;29;20116;-73
2021/07/22 03:24:01;;;;;;;13.60;9.77;;;487.00;2380.80;;;;;;4843894;29;20030;-74
2021/07/22 03:26:26;;;;;;;13.43;8.65;;;487.00;2380.80;;;;;;4842457;29;20046;-74
2021/07/22 03:28:52;;;;;;;11.18;8.32;;;487.00;2380.80;;;;;;4843613;29;20025;-74
2021/07/22 03:31:18;;;;;;;12.35;8.95;;;487.00;2380.80;;;;;;4843789;29;20030;-74
2021/07/22 03:33:43;;;;;;;13.73;9.13;;;487.10;2380.80;;;;;;4842282;29;20038;-74
2021/07/22 03:36:09;;;;;;;11.02;7.97;;;487.10;2380.80;;;;;;4843728;29;20033;-74
2021/07/22 03:38:35;;;;;;;15.77;8.82;;;487.00;2380.80;;;;;;4843420;29;20457;-74
2021/07/22 03:41:00;;;;;;;12.80;8.70;;;487.00;2380.80;;;;;;4842218;29;20018;-74
2021/07/22 03:43:26;;;;;;;15.23;9.75;;;487.00;2380.80;;;;;;4843352;29;20110;-73
2021/07/22 03:46:01;;;;;;;14.52;9.85;;;487.00;2380.80;;;;;;4843417;29;20030;-73
2021/07/22 03:48:27;;;;;;;19.45;13.02;;;487.10;2380.80;;;;;;4843189;29;20096;-74
2021/07/22 03:50:53;;;;;;;15.48;11.32;;;487.10;2380.80;;;;;;4843397;29;20074;-74
2021/07/22 03:53:18;;;;;;;16.88;11.02;;;487.10;2380.80;;;;;;4842241;29;20037;-73
2021/07/22 03:55:44;;;;;;;16.25;11.77;;;487.10;2380.80;;;;;;4843058;29;20082;-74
2021/07/22 03:58:10;;;;;;;13.13;10.73;;;487.00;2380.80;;;;;;4843342;29;20439;-73
2021/07/22 04:00:35;;;;;;;14.77;10.18;;;487.00;2380.80;;;;;;4842931;29;20466;-73
2021/07/22 04:03:02;;;;;;;16.30;10.07;;;487.00;2380.80;;;;;;4841304;29;20041;-74
2021/07/22 04:05:28;;;;;;;12.30;9.32;;;487.00;2380.80;;;;;;4841799;29;20030;-73
2021/07/22 04:07:57;;;;;;;22.77;9.77;;;487.00;2380.80;;;;;;4831745;29;20057;-73
2021/07/22 04:10:28;;;;;;;15.52;10.07;;;487.10;2380.80;;;;;;4843114;29;20406;-74
2021/07/22 04:13:01;;;;;;;12.10;9.82;;;487.10;2380.80;;;;;;4839482;29;20039;-74
2021/07/22 04:15:28;;;;;;;14.50;8.82;;;487.20;2380.80;;;;;;4842644;29;20077;-73
2021/07/22 04:17:55;;;;;;;14.70;9.02;;;487.20;2380.80;;;;;;4842321;29;20038;-73
2021/07/22 04:20:22;;;;;;;13.23;9.20;;;487.30;2380.80;;;;;;4838342;29;20390;-73
2021/07/22 04:22:49;;;;;;;11.50;9.43;;;487.30;2380.80;;;;;;4838288;29;20034;-74
2021/07/22 04:25:15;;;;;;;21.75;9.35;;;512.00;2380.80;;;;;;4838348;29;20506;-73
2021/07/22 04:27:41;;;;;;;10.68;7.78;;;512.10;2380.80;;;;;;4836224;29;20054;-73
2021/07/22 04:30:08;;;;;;;12.98;7.95;;;512.10;2380.80;;;;;;4837150;29;20037;-73
2021/07/22 04:32:35;;;;;;;9.93;7.65;;;512.10;2380.80;;;;;;4835643;29;20033;-73
2021/07/22 04:35:01;;;;;;;11.32;8.07;;;512.20;2380.80;;;;;;4840647;29;20037;-74
2021/07/22 04:37:27;;;;;;;14.60;8.63;;;512.30;2380.80;;;;;;4840385;29;20363;-73
2021/07/22 04:39:53;;;;;;;11.60;8.38;;;512.40;2380.80;;;;;;4840473;29;20029;-74
2021/07/22 04:42:19;;;;;;;12.07;8.98;;;512.50;2380.80;;;;;;4839412;29;20125;-74
2021/07/22 04:44:44;;;;;;;14.57;8.65;;;512.50;2380.80;;;;;;4837608;29;20045;-73
2021/07/22 04:47:10;;;;;;;14.25;8.38;;;512.70;2380.80;;;;;;4839605;29;20034;-73
2021/07/22 04:49:36;;;;;;;12.45;10.10;;;512.90;2380.80;;;;;;4840934;29;20439;-73
2021/07/22 04:52:01;;;;;;;9.82;7.57;;;537.70;2406.40;;;;;;4839977;29;20042;-73
2021/07/22 04:54:27;;;;;;;12.73;9.32;;;537.80;2406.40;;;;;;4840232;29;20139;-73
2021/07/22 04:56:53;;;;;;;13.25;10.68;;;538.00;2406.40;;;;;;4841276;29;20030;-73
2021/07/22 04:59:19;;;;;;;16.27;10.30;;;538.10;2406.40;;;;;;4840811;29;20050;-73
2021/07/22 05:01:44;;;;;;;14.15;10.85;;;538.30;2406.40;;;;;;4839088;29;20042;-74
2021/07/22 05:04:17;;;;;;;17.83;10.93;;;563.20;2432.00;;;;;;4839532;29;20122;-73
2021/07/22 05:06:43;;;;;;;14.82;10.60;;;563.30;2432.00;;;;;;4828656;29;20034;-74
2021/07/22 05:09:09;;;;;;;17.90;11.30;;;563.50;2432.00;;;;;;4823503;29;20033;-73
2021/07/22 05:11:35;;;;;;;14.60;11.07;;;563.60;2432.00;;;;;;4839592;29;20462;-74
2021/07/22 05:14:01;;;;;;;19.20;9.30;;;563.60;2432.00;;;;;;4841281;29;20030;-73
2021/07/22 05:16:26;;;;;;;17.20;10.77;;;563.70;2432.00;;;;;;4840832;29;20409;-73
2021/07/22 05:18:52;;;;;;;13.02;9.38;;;563.90;2432.00;;;;;;4798177;29;1250669;-74
2021/07/22 05:21:19;;;;;;;14.02;9.32;;;564.00;2432.00;;;;;;4841372;29;20034;-74
2021/07/22 05:23:45;;;;;;;15.05;8.80;;;588.80;2432.00;;;;;;4841806;29;20036;-73
2021/07/22 05:26:11;;;;;;;11.60;7.93;;;588.80;2432.00;;;;;;4828924;29;20110;-73
2021/07/22 05:28:38;;;;;;;14.80;8.32;;;588.90;2432.00;;;;;;4841561;29;20097;-74
2021/07/22 05:31:08;;;;;;;13.27;8.63;;;589.10;2432.00;;;;;;4841550;29;20022;-73
2021/07/22 05:33:34;;;;;;;12.55;7.43;;;589.20;2432.00;;;;;;4840746;29;20026;-73
2021/07/22 05:36:02;;;;;;;12.43;7.93;;;589.30;2432.00;;;;;;4831585;29;20049;-74
2021/07/22 05:38:32;;;;;;;10.52;6.03;;;589.40;2432.00;;;;;;4841494;29;20538;-74
2021/07/22 05:41:05;;;;;;;10.55;7.45;;;589.60;2432.00;;;;;;4841576;29;20034;-74
2021/07/22 05:43:31;;;;;;;10.00;7.28;;;589.60;2432.00;;;;;;4839683;29;20033;-73
2021/07/22 05:45:58;;;;;;;12.40;7.57;;;614.50;2432.00;;;;;;4840627;29;20026;-73
2021/07/22 05:48:24;;;;;;;10.43;6.88;;;614.60;2432.00;;;;;;4840459;29;20493;-74
2021/07/22 05:50:50;;;;;;;12.85;8.48;;;614.90;2432.00;;;;;;4831422;29;20121;-74
2021/07/22 05:53:19;;;;;;;9.68;7.03;;;615.20;2432.00;;;;;;4841618;29;20040;-73
2021/07/22 05:55:45;;;;;;;11.23;7.45;;;640.10;2432.00;;;;;;4841200;29;20128;-73
2021/07/22 05:58:11;;;;;;;11.82;6.60;;;640.50;2432.00;;;;;;4837102;29;20106;-73
2021/07/22 06:00:38;;;;;;;10.43;6.50;;;640.80;2432.00;;;;;;4835651;29;20064;-74
2021/07/22 06:03:04;;;;;;;9.93;6.47;;;665.80;2432.00;;;;;;4841216;29;20069;-74
2021/07/22 06:05:31;;;;;;;11.13;7.32;;;666.10;2432.00;;;;;;4841509;29;20029;-74
2021/07/22 06:07:57;;;;;;;14.55;6.80;;;666.10;2432.00;;;;;;4840975;29;20030;-74
2021/07/22 06:10:23;;;;;;;9.75;5.85;;;666.40;2432.00;;;;;;4840185;29;20033;-74
2021/07/22 06:12:49;;;;;;;11.73;6.38;;;691.30;2432.00;;;;;;4840692;29;20048;-74
2021/07/22 06:15:15;;;;;;;11.32;7.10;;;691.60;2432.00;;;;;;4841150;29;20114;-73
2021/07/22 06:17:41;;;;;;;10.00;6.68;;;691.70;2432.00;;;;;;4839638;29;20034;-74
2021/07/22 06:20:08;;;;;;;10.98;7.97;;;691.80;2432.00;;;;;;4841135;29;20058;-74
2021/07/22 06:22:37;;;;;;;11.25;7.05;;;691.80;2432.00;;;;;;4834300;29;20034;-74
2021/07/22 06:25:04;;;;;;;13.75;6.95;;;692.00;2432.00;;;;;;4829093;29;20486;-74
2021/07/22 06:27:30;;;;;;;11.90;7.00;;;717.00;2432.00;;;;;;4833251;29;20026;-74
2021/07/22 06:29:59;;;;;;;13.57;7.53;;;717.10;2432.00;;;;;;4839898;29;20034;-74
2021/07/22 06:32:25;;;;;;;9.68;6.85;;;717.00;2432.00;;;;;;4841321;29;20030;-74
2021/07/22 06:34:51;;;;;;;10.38;7.00;;;717.00;2432.00;;;;;;4840614;29;20042;-74
2021/07/22 06:37:16;;;;;;;17.27;8.80;;;692.10;2432.00;;;;;;4839922;29;20034;-74
2021/07/22 06:39:42;;;;;;;10.05;7.57;;;692.10;2432.00;;;;;;4830690;29;20042;-74
2021/07/22 06:42:08;;;;;;;12.70;8.07;;;692.00;2432.00;;;;;;4837086;29;20108;-73
2021/07/22 06:44:33;;;;;;;15.23;9.00;;;716.80;2432.00;;;;;;4840630;29;20038;-74
2021/07/22 06:47:00;;;;;;;11.20;7.90;;;716.90;2432.00;;;;;;4843279;29;20026;-74
2021/07/22 06:49:26;;;;;;;11.40;8.57;;;717.00;2432.00;;;;;;4842127;29;20682;-74
2021/07/22 06:51:52;;;;;;;7.57;5.57;;;717.20;2432.00;;;;;;4844555;29;20030;-74
2021/07/22 06:54:21;;;;;;;9.88;6.57;;;717.30;2432.00;;;;;;4844049;29;20494;-74
2021/07/22 06:56:48;;;;;;;7.22;5.78;;;717.00;2432.00;;;;;;4834726;29;20022;-74
2021/07/22 06:59:14;;;;;;;9.05;5.43;;;717.20;2432.00;;;;;;4841177;29;20064;-74
2021/07/22 07:01:39;;;;;;;10.88;6.72;;;717.30;2432.00;;;;;;4842496;29;20086;-73
2021/07/22 07:04:06;;;;;;;8.25;5.93;;;717.70;2432.00;;;;;;4832162;29;20034;-73
2021/07/22 07:06:36;;;;;;;6.82;6.13;;;742.40;2432.00;;;;;;4842504;29;20026;-74
2021/07/22 07:09:05;;;;;;;16.40;7.65;;;717.70;2432.00;;;;;;4832988;29;20033;-74
2021/07/22 07:11:31;;;;;;;10.00;5.78;;;742.60;2432.00;;;;;;4843341;29;20025;-73
2021/07/22 07:13:57;;;;;;;8.95;6.60;;;743.00;2432.00;;;;;;4843439;29;20059;-73
2021/07/22 07:16:23;;;;;;;8.07;6.47;;;768.00;2432.00;;;;;;4838314;29;20023;-74
2021/07/22 07:18:49;;;;;;;7.55;5.75;;;768.00;2432.00;;;;;;4835082;29;20038;-74
2021/07/22 07:21:15;;;;;;;7.25;5.82;;;768.10;2432.00;;;;;;4842494;29;20049;-73
2021/07/22 07:23:40;;;;;;;10.50;5.78;;;768.20;2432.00;;;;;;4839960;29;20118;-74
2021/07/22 07:26:11;;;;;;;9.20;6.03;;;768.30;2432.00;;;;;;4831754;29;20050;-74
2021/07/22 07:28:37;;;;;;;6.75;5.05;;;768.50;2432.00;;;;;;4842034;29;20037;-74
2021/07/22 07:31:02;;;;;;;6.38;4.70;;;768.40;2406.40;;;;;;4843857;29;20081;-74
2021/07/22 07:33:28;;;;;;;6.07;4.60;;;768.10;2380.80;;;;;;4843230;29;20481;-72
2021/07/22 07:35:57;;;;;;;6.07;4.72;;;768.10;2380.80;;;;;;4843813;29;20381;-72
2021/07/22 07:38:23;;;;;;;7.68;4.63;;;768.50;2380.80;;;;;;4843394;29;20057;-72
2021/07/22 07:40:50;;;;;;;7.68;5.07;;;768.50;2380.80;;;;;;4843175;29;20030;-72
2021/07/22 07:43:20;;;;;;;9.30;5.53;;;768.60;2304.00;;;;;;4843335;29;20033;-72
2021/07/22 07:45:46;;;;;;;6.18;4.72;;;768.30;2355.20;;;;;;4842523;29;20509;-72
2021/07/22 07:48:12;;;;;;;6.22;4.90;;;768.40;2329.60;;;;;;4843078;29;20485;-73
2021/07/22 07:50:38;;;;;;;9.00;5.70;;;768.60;2329.60;;;;;;4842841;29;20030;-72
2021/07/22 07:53:14;;;;;;;5.63;4.65;;;768.90;2304.00;;;;;;4842862;29;20026;-72
2021/07/22 07:55:40;;;;;;;7.30;5.30;;;793.70;2278.40;;;;;;4842762;29;20048;-72
2021/07/22 07:58:06;;;;;;;5.32;3.70;;;794.00;2227.20;;;;;;4840496;29;20069;-72
2021/07/22 08:00:32;;;;;;;6.30;3.63;;;793.90;2073.60;;;;;;4841602;29;20053;-72
2021/07/22 08:02:58;;;;;;;7.47;3.72;;;794.30;2073.60;;;;;;4839251;29;20036;-73
2021/07/22 08:05:25;;;;;;;8.27;4.28;;;794.40;2073.60;;;;;;4838800;29;20018;-72
2021/07/22 08:07:51;;;;;;;7.20;4.03;;;794.50;2073.60;;;;;;4840054;29;20045;-72
2021/07/22 08:10:17;;;;;;;7.18;4.47;;;819.40;2048.00;;;;;;4837535;29;20021;-72
2021/07/22 08:12:42;;;;;;;6.00;4.05;;;819.60;2022.40;;;;;;4840996;29;20038;-72
2021/07/22 08:15:10;;;;;;;8.52;4.15;;;819.60;2048.00;;;;;;4840819;29;20030;-72
2021/07/22 08:17:36;;;;;;;6.50;5.13;;;819.60;2048.00;;;;;;4837869;29;20022;-72
2021/07/22 08:20:06;;;;;;;8.65;4.20;;;819.60;2048.00;;;;;;4833300;29;20049;-72
2021/07/22 08:22:36;;;;;;;6.68;3.97;;;819.40;2048.00;;;;;;4841487;29;20876;-72
2021/07/22 08:25:03;;;;;;;5.20;3.83;;;819.40;2048.00;;;;;;4837581;29;20037;-71
2021/07/22 08:27:31;;;;;;;7.60;4.55;;;819.40;2022.40;;;;;;4842036;29;20033;-72
2021/07/22 08:29:57;;;;;;;12.10;4.80;;;819.70;1971.20;;;;;;4839516;29;20028;-72
2021/07/22 08:32:24;;;;;;;4.80;4.22;;;819.70;1971.20;;;;;;4837165;29;20389;-71
2021/07/22 08:34:50;;;;;;;6.38;3.88;;;819.70;1945.60;;;;;;4841160;29;20022;-72
2021/07/22 08:37:16;;;;;;;5.07;3.83;;;844.80;1920.00;;;;;;4840736;29;20030;-74
2021/07/22 08:39:49;;;;;;;7.65;4.38;;;844.80;1894.40;;;;;;4839807;29;20098;-74
2021/07/22 08:42:14;;;;;;;7.38;5.40;;;844.80;1868.80;;;;;;4840585;29;20110;-74
2021/07/22 08:44:42;;;;;;;13.07;7.93;;;845.30;1843.20;;;;;;4830609;29;20074;-74
2021/07/22 08:47:10;;;;;;;8.68;4.60;;;845.50;1817.60;;;;;;4839194;29;20029;-74
2021/07/22 08:49:37;;;;;;;7.68;4.38;;;845.50;1817.60;;;;;;4837202;29;20167;-74
2021/07/22 08:52:11;;;;;;;7.50;4.65;;;845.40;1792.00;;;;;;4838982;29;20057;-74
2021/07/22 08:54:38;;;;;;;7.03;3.90;;;845.50;1792.00;;;;;;4839106;29;20121;-74
2021/07/22 08:57:08;;;;;;;5.82;4.38;;;845.50;1740.80;;;;;;4840746;29;20030;-74
2021/07/22 08:59:34;;;;;;;5.13;4.15;;;845.60;1740.80;;;;;;4838280;29;20037;-74
2021/07/22 09:02:01;;;;;;;7.75;4.00;;;870.40;1664.00;;;;;;4838441;29;20042;-74
2021/07/22 09:04:27;;;;;;;5.70;3.75;;;845.50;1689.60;;;;;;4835994;29;20030;-74
2021/07/22 09:06:53;;;;;;;5.38;3.17;;;845.50;1715.20;;;;;;4839598;29;20071;-74
2021/07/22 09:09:19;;;;;;;6.20;3.88;;;845.40;1664.00;;;;;;4839234;29;20045;-74
2021/07/22 09:12:01;;;;;;;5.47;3.80;;;845.10;1715.20;;;;;;4840729;29;20026;-74
2021/07/22 09:14:29;;;;;;;7.40;3.92;;;844.80;1689.60;;;;;;4836972;29;20034;-74
2021/07/22 09:16:56;;;;;;;9.20;5.80;;;845.40;1689.60;;;;;;4827513;29;20048;-74
2021/07/22 09:19:37;;;;;;;6.80;3.70;;;870.40;1664.00;;;;;;4831882;29;20045;-74
2021/07/22 09:22:10;;;;;;;7.55;3.83;;;870.70;1612.80;;;;;;4828564;29;20045;-74
2021/07/22 09:24:52;;;;;;;6.53;3.72;;;870.90;1612.80;;;;;;4838657;29;20030;-74
2021/07/22 09:27:39;;;;;;;5.07;3.47;;;870.70;1587.20;;;;;;4835946;29;20513;-74
2021/07/22 09:30:06;;;;;;;6.35;4.00;;;871.00;1536.00;;;;;;4839561;29;20501;-71
2021/07/22 09:32:33;;;;;;;8.20;4.40;;;871.20;1536.00;;;;;;4839939;29;20037;-73
2021/07/22 09:35:08;;;;;;;5.07;3.38;;;871.20;1536.00;;;;;;4836944;29;20141;-74
2021/07/22 09:37:34;;;;;;;;;;;896.10;1536.00;;;;;;4837723;29;20101;-73
2021/07/22 09:40:00;;;;;;;;;;;896.60;1433.60;;;;;;4835603;29;20431;-74
2021/07/22 09:42:25;;;;;;;9.45;4.28;;;896.50;1459.20;;;;;;4836666;29;19912;-74
2021/07/22 09:44:51;;;;;;;4.80;3.42;;;896.40;1459.20;;;;;;4828949;29;20030;-74
2021/07/22 09:47:29;;;;;;;5.55;4.05;;;896.50;1433.60;;;;;;4825466;29;20026;-74
2021/07/22 09:50:10;;;;;;;6.57;3.75;;;896.00;1408.00;;;;;;4838652;29;20049;-74
2021/07/22 09:52:35;;;;;;;4.93;4.30;;;871.30;1408.00;;;;;;4837692;29;20030;-74
2021/07/22 09:55:01;;;;;;;6.57;4.13;;;896.40;1382.40;;;;;;4839393;29;20022;-74
2021/07/22 09:57:28;;;;;;;6.25;3.83;;;;;;;;;;4838440;29;20082;-74
2021/07/22 09:59:55;;;;;;;7.07;4.13;;;922.00;1356.80;;;;;;4839090;29;20123;-74
2021/07/22 10:02:23;;;;;;;6.82;3.65;;;922.10;1356.80;;;;;;4836247;29;20033;-74
2021/07/22 10:04:56;;;;;;;4.90;3.97;;;921.70;1356.80;;;;;;4837356;29;20034;-74
2021/07/22 10:07:24;;;;;;;6.38;4.30;;;896.80;1305.60;;;;;;4836357;29;20385;-74
2021/07/22 10:09:52;;;;;;;7.60;3.50;;;896.90;1305.60;;;;;;4836519;29;20493;-75
2021/07/22 10:12:20;;;;;;;5.30;3.60;;;922.50;1305.60;;;;;;4837027;29;20443;-74
2021/07/22 10:14:54;;;;;;;6.18;4.18;;;947.50;1280.00;;;;;;4838519;29;20029;-74
2021/07/22 10:17:34;;;;;;;4.47;3.40;;;922.40;1305.60;;;;;;4837531;29;20036;-74
2021/07/22 10:20:06;;;;;;;5.95;3.67;;;922.50;1305.60;;;;;;4832409;29;20061;-74
2021/07/22 10:22:32;;;;;;;4.55;3.47;;;922.50;1280.00;;;;;;4842063;29;20034;-74
2021/07/22 10:24:58;;;;;;;7.35;3.70;;;947.20;1280.00;;;;;;4841351;29;20053;-74
2021/07/22 10:27:25;;;;;;;5.18;4.05;;;947.70;1228.80;;;;;;4841874;29;20110;-75
2021/07/22 10:29:51;;;;;;;7.07;4.00;;;947.50;1254.40;;;;;;4841546;29;20029;-74
2021/07/22 10:32:19;;;;;;;8.55;4.35;;;947.50;1254.40;;;;;;4841348;29;20029;-74
2021/07/22 10:34:46;;;;;;;7.25;3.70;;;;;;;;;;4840414;29;20026;-73
2021/07/22 10:37:19;;;;;;;8.77;4.55;;;973.00;1228.80;;;;;;4839777;29;20042;-74
2021/07/22 10:40:08;;;;;;;5.35;4.00;;;948.00;1228.80;;;;;;4840446;29;20557;-73
2021/07/22 10:42:47;;;;;;;5.70;3.75;;;947.80;1203.20;;;;;;4840695;29;20117;-74
2021/07/22 10:45:24;;;;;;;4.43;3.42;;;947.60;1203.20;;;;;;4840472;29;20190;-74
2021/07/22 10:48:16;;;;;;;4.30;3.75;;;;;;;;;;4836348;29;20022;-74
2021/07/22 10:50:54;;;;;;;7.38;4.05;;;973.00;1203.20;;;;;;4838206;29;20053;-74
2021/07/22 10:53:42;;;;;;;8.13;3.30;;;973.20;1203.20;;;;;;4841212;29;20493;-74
2021/07/22 10:56:08;;;;;;;5.30;3.85;;;998.40;1177.60;;;;;;4838648;29;20470;-74
2021/07/22 10:58:34;;;;;;;4.65;3.95;;;998.70;1152.00;;;;;;4840046;29;20037;-75
2021/07/22 11:01:01;;;;;;;6.40;4.10;;;998.40;1177.60;;;;;;4838468;29;20105;-76
2021/07/22 11:03:35;;;;;;;8.18;5.00;;;973.30;1152.00;;;;;;4843031;29;20419;-74
2021/07/22 11:06:08;;;;;;;4.63;3.42;;;973.50;1152.00;;;;;;4842905;29;20022;-75
2021/07/22 11:08:38;;;;;;;6.15;3.92;;;973.20;1177.60;;;;;;4834491;29;20486;-75
2021/07/22 11:11:09;;;;;;;7.80;4.97;;;972.90;1177.60;;;;;;4834483;29;20061;-75
2021/07/22 11:13:41;;;;;;;6.88;4.25;;;972.90;1177.60;;;;;;4831347;29;20528;-74
2021/07/22 11:16:25;;;;;;;6.30;3.95;;;922.40;1203.20;;;;;;4832506;29;20056;-74
2021/07/22 11:19:13;;;;;;;7.80;4.78;;;947.70;1177.60;;;;;;4834809;29;20034;-74
2021/07/22 11:21:48;;;;;;;6.40;3.65;;;973.20;1152.00;;;;;;4836633;29;20038;-74
2021/07/22 11:24:18;;;;;;;4.22;3.72;;;998.40;1152.00;;;;;;4835305;29;20030;-74
2021/07/22 11:26:49;;;;;;;7.80;4.78;;;998.90;1126.40;;;;;;4830840;29;20121;-74
2021/07/22 11:29:16;;;;;;;6.35;4.30;;;998.90;1126.40;;;;;;4834547;29;20478;-75
2021/07/22 11:32:02;;;;;;;10.38;4.05;;;947.80;1152.00;;;;;;4834483;29;20042;-74
2021/07/22 11:34:36;;;;;;;7.82;4.55;;;921.60;1203.20;;;;;;4837845;29;20135;-74
2021/07/22 11:37:03;;;;;;;7.93;4.78;;;896.10;1228.80;;;;;;4826968;29;20033;-74
2021/07/22 11:39:38;;;;;;;5.10;4.07;;;870.80;1280.00;;;;;;4854929;29;20105;-74
2021/07/22 11:42:06;;;;;;;5.93;4.07;;;871.10;1254.40;;;;;;4835894;29;20041;-74
2021/07/22 11:44:32;;;;;;;4.40;3.33;;;896.80;1203.20;;;;;;4830813;29;20030;-74
2021/07/22 11:46:58;;;;;;;5.03;4.00;;;921.60;1203.20;;;;;;4837902;29;20446;-74
2021/07/22 11:49:31;;;;;;;4.28;3.72;;;896.40;1228.80;;;;;;4841434;29;20041;-74
2021/07/22 11:51:56;;;;;;;9.27;4.30;;;921.70;1228.80;;;;;;4841450;29;20040;-74
2021/07/22 11:54:22;;;;;;;5.40;3.80;;;896.80;1203.20;;;;;;4840885;29;20105;-75
2021/07/22 11:56:48;;;;;;;8.18;4.65;;;922.00;1203.20;;;;;;4837133;29;20351;-74
2021/07/22 11:59:14;;;;;;;5.55;4.25;;;896.70;1203.20;;;;;;4837898;29;20034;-75
2021/07/22 12:01:48;;;;;;;5.88;3.88;;;871.10;1228.80;;;;;;4837634;29;20091;-74
2021/07/22 12:04:22;;;;;;;5.82;3.85;;;870.50;1254.40;;;;;;4831410;29;20124;-74
2021/07/22 12:06:50;;;;;;;8.00;4.10;;;845.30;1280.00;;;;;;4839498;29;20105;-74
2021/07/22 12:09:16;;;;;;;5.03;3.92;;;870.60;1254.40;;;;;;4841805;29;20482;-75
2021/07/22 12:11:46;;;;;;;6.38;3.83;;;896.30;1228.80;;;;;;4836887;29;20038;-74
2021/07/22 12:14:12;;;;;;;6.15;4.50;;;922.10;1177.60;;;;;;4841949;29;20026;-75
2021/07/22 12:16:39;;;;;;;5.35;4.07;;;947.70;1152.00;;;;;;4841628;29;20037;-75